Time;durP1;ratioP1;P1;durP2;ratioP2;P2;SDS_P1;SDS_P2;PMS_P1;PMS_P2;Temp;Humidity;BMP_temperature;BMP_pressure;BME280_temperature;BME280_humidity;BME280_pressure;Samples;Min_cycle;Max_cycle;Signal;HPM_P1;HPM_P2
2023/12/08 00:00:45;;;;;;;64.22;6.82;;;;;;;;;;5053394;28;20120;-66
2023/12/08 00:03:11;;;;;;;44.65;5.13;;;;;;;;;;5052982;28;20389;-66
2023/12/08 00:05:36;;;;;;;51.58;5.32;;;;;;;;;;5053055;28;20029;-66
2023/12/08 00:08:01;;;;;;;62.80;7.90;;;;;;;;;;5041093;28;20561;-66
2023/12/08 00:10:27;;;;;;;45.28;5.28;;;;;;;;;;5053165;28;20423;-65
2023/12/08 00:12:52;;;;;;;51.30;5.30;;;;;;;;;;5052724;28;20452;-66
2023/12/08 00:15:17;;;;;;;67.88;5.13;;;;;;;;;;5050996;28;20067;-67
2023/12/08 00:17:43;;;;;;;52.60;6.35;;;;;;;;;;5052968;28;20491;-67
2023/12/08 00:20:09;;;;;;;46.78;5.68;;;;;;;;;;5053031;28;20060;-66
2023/12/08 00:22:34;;;;;;;64.22;5.32;;;;;;;;;;5052717;28;20708;-66
2023/12/08 00:24:59;;;;;;;48.53;5.90;;;;;;;;;;5052760;28;20028;-66
2023/12/08 00:27:25;;;;;;;45.88;5.80;;;;;;;;;;5052873;28;20037;-66
2023/12/08 00:29:50;;;;;;;35.45;4.50;;;;;;;;;;5051299;28;20041;-65
2023/12/08 00:32:16;;;;;;;46.20;5.05;;;;;;;;;;5052635;28;20565;-66
2023/12/08 00:34:41;;;;;;;43.92;5.22;;;;;;;;;;5051446;28;20037;-66
2023/12/08 00:37:08;;;;;;;51.95;5.40;;;;;;;;;;5052744;28;20033;-65
2023/12/08 00:39:33;;;;;;;53.17;5.38;;;;;;;;;;5052585;28;20036;-65
2023/12/08 00:41:58;;;;;;;56.05;6.13;;;;;;;;;;5052540;28;20025;-66
2023/12/08 00:44:24;;;;;;;64.25;6.13;;;;;;;;;;5052804;28;20048;-65
2023/12/08 00:46:49;;;;;;;54.55;6.60;;;;;;;;;;5052416;28;20024;-65
2023/12/08 00:49:14;;;;;;;60.50;6.63;;;;;;;;;;5050975;28;20080;-66
2023/12/08 00:51:40;;;;;;;53.65;6.35;;;;;;;;;;5051765;28;20392;-66
2023/12/08 00:54:05;;;;;;;50.03;8.18;;;;;;;;;;5051970;28;20435;-66
2023/12/08 00:56:30;;;;;;;37.08;7.38;;;;;;;;;;5052316;28;20609;-66
2023/12/08 00:58:56;;;;;;;42.30;6.65;;;;;;;;;;5052513;28;20511;-66
2023/12/08 01:01:21;;;;;;;54.28;6.68;;;;;;;;;;5052137;28;20114;-67
2023/12/08 01:03:47;;;;;;;66.43;6.93;;;;;;;;;;5050940;28;20036;-67
2023/12/08 01:06:12;;;;;;;51.40;7.80;;;;;;;;;;5052386;28;20040;-66
2023/12/08 01:08:38;;;;;;;114.38;10.32;;;;;;;;;;5052069;28;20481;-66
2023/12/08 01:11:06;;;;;;;44.55;8.20;;;;;;;;;;5049528;28;20111;-67
2023/12/08 01:13:31;;;;;;;32.28;7.50;;;;;;;;;;5052107;28;20033;-66
2023/12/08 01:15:56;;;;;;;44.85;8.43;;;;;;;;;;5051872;28;20047;-66
2023/12/08 01:18:22;;;;;;;43.30;8.02;;;;;;;;;;5052258;28;20392;-66
2023/12/08 01:20:47;;;;;;;36.47;7.03;;;;;;;;;;5051867;28;20418;-66
2023/12/08 01:23:13;;;;;;;25.73;6.93;;;;;;;;;;5051852;28;20037;-66
2023/12/08 01:25:38;;;;;;;20.48;5.55;;;;;;;;;;5051683;28;20037;-65
2023/12/08 01:28:04;;;;;;;37.63;6.40;;;;;;;;;;5051719;28;20047;-66
2023/12/08 01:30:29;;;;;;;27.50;5.75;;;;;;;;;;5050104;28;20110;-66
2023/12/08 01:32:54;;;;;;;38.33;6.80;;;;;;;;;;5051626;28;20024;-66
2023/12/08 01:35:20;;;;;;;19.45;4.63;;;;;;;;;;5051623;28;20040;-66
2023/12/08 01:37:45;;;;;;;25.30;4.57;;;;;;;;;;5051627;28;20473;-65
2023/12/08 01:40:11;;;;;;;28.88;5.10;;;;;;;;;;5051600;28;20671;-65
2023/12/08 01:42:37;;;;;;;26.02;4.90;;;;;;;;;;5051462;28;20048;-66
2023/12/08 01:45:03;;;;;;;25.45;4.85;;;;;;;;;;5051270;28;20017;-68
2023/12/08 01:47:29;;;;;;;30.40;4.03;;;;;;;;;;5051249;28;20060;-65
2023/12/08 01:49:55;;;;;;;36.45;4.55;;;;;;;;;;5051405;28;20033;-65
2023/12/08 01:52:23;;;;;;;63.85;5.78;;;;;;;;;;5051368;28;20370;-65
2023/12/08 01:54:51;;;;;;;40.90;4.40;;;;;;;;;;5049201;28;20028;-66
2023/12/08 01:57:17;;;;;;;56.55;3.90;;;;;;;;;;5027074;28;20041;-66
2023/12/08 01:59:43;;;;;;;41.20;4.68;;;;;;;;;;5051158;28;20029;-65
2023/12/08 02:02:08;;;;;;;52.80;6.97;;;;;;;;;;5050942;28;20131;-66
2023/12/08 02:04:33;;;;;;;43.63;5.95;;;;;;;;;;5051313;28;20052;-65
2023/12/08 02:06:59;;;;;;;34.70;6.60;;;;;;;;;;5050851;28;20029;-66
2023/12/08 02:09:25;;;;;;;34.33;4.30;;;;;;;;;;5044791;28;20044;-66
2023/12/08 02:11:50;;;;;;;40.40;4.63;;;;;;;;;;5050703;28;20041;-66
2023/12/08 02:14:16;;;;;;;38.40;4.13;;;;;;;;;;5050781;28;20556;-66
2023/12/08 02:16:47;;;;;;;59.78;5.35;;;;;;;;;;5051091;28;20385;-65
2023/12/08 02:19:13;;;;;;;41.80;5.68;;;;;;;;;;5049533;28;20120;-66
2023/12/08 02:21:39;;;;;;;47.15;8.02;;;;;;;;;;5050864;28;20108;-66
2023/12/08 02:24:04;;;;;;;49.50;7.80;;;;;;;;;;5049258;28;20112;-65
2023/12/08 02:26:30;;;;;;;34.17;8.20;;;;;;;;;;5050985;28;20091;-65
2023/12/08 02:28:55;;;;;;;45.17;7.40;;;;;;;;;;5049097;28;20499;-65
2023/12/08 02:31:24;;;;;;;20.40;6.50;;;;;;;;;;5050398;28;20041;-65
2023/12/08 02:33:51;;;;;;;36.67;8.15;;;;;;;;;;5050450;28;20108;-65
2023/12/08 02:36:17;;;;;;;36.95;7.82;;;;;;;;;;5049731;28;20032;-65
2023/12/08 02:38:43;;;;;;;45.85;8.88;;;;;;;;;;5048841;28;20040;-65
2023/12/08 02:41:08;;;;;;;50.85;8.00;;;;;;;;;;5050389;28;20614;-65
2023/12/08 02:43:34;;;;;;;46.10;7.57;;;;;;;;;;5048960;28;20067;-65
2023/12/08 02:45:59;;;;;;;34.88;6.70;;;;;;;;;;5049246;28;20037;-65
2023/12/08 02:48:24;;;;;;;52.83;8.10;;;;;;;;;;5044408;28;20461;-66
2023/12/08 02:50:51;;;;;;;37.50;6.40;;;;;;;;;;5050551;28;20029;-65
2023/12/08 02:53:16;;;;;;;27.88;5.43;;;;;;;;;;5050314;28;20033;-65
2023/12/08 02:55:42;;;;;;;47.47;4.47;;;;;;;;;;5048482;28;20040;-65
2023/12/08 02:58:07;;;;;;;47.65;4.68;;;;;;;;;;5049650;28;20032;-65
2023/12/08 03:00:32;;;;;;;49.95;4.43;;;;;;;;;;5048865;28;20040;-66
2023/12/08 03:02:58;;;;;;;42.97;3.60;;;;;;;;;;5044718;28;20044;-68
2023/12/08 03:05:23;;;;;;;44.42;4.72;;;;;;;;;;5049535;28;20525;-66
2023/12/08 03:07:48;;;;;;;49.25;5.25;;;;;;;;;;5049409;28;20434;-67
2023/12/08 03:10:14;;;;;;;67.97;5.20;;;;;;;;;;5049675;28;20044;-65
2023/12/08 03:12:39;;;;;;;55.80;4.55;;;;;;;;;;5048660;28;20166;-65
2023/12/08 03:15:05;;;;;;;47.00;3.95;;;;;;;;;;5053362;28;20519;-66
2023/12/08 03:17:32;;;;;;;49.60;4.10;;;;;;;;;;5054483;28;20086;-66
2023/12/08 03:19:57;;;;;;;47.67;4.25;;;;;;;;;;5050053;28;20024;-65
2023/12/08 03:22:22;;;;;;;51.40;3.92;;;;;;;;;;5054071;28;20423;-65
2023/12/08 03:24:48;;;;;;;64.25;4.63;;;;;;;;;;5054210;28;20041;-66
2023/12/08 03:27:13;;;;;;;46.83;3.72;;;;;;;;;;5053705;28;20036;-65
2023/12/08 03:29:41;;;;;;;46.33;4.47;;;;;;;;;;5052175;28;20033;-65
2023/12/08 03:32:07;;;;;;;41.03;3.95;;;;;;;;;;5054259;28;20052;-66
2023/12/08 03:34:33;;;;;;;61.40;5.40;;;;;;;;;;5053467;28;20040;-65
2023/12/08 03:36:58;;;;;;;39.78;3.40;;;;;;;;;;5049819;28;20032;-65
2023/12/08 03:39:24;;;;;;;47.05;4.72;;;;;;;;;;5053845;28;20392;-65
2023/12/08 03:41:49;;;;;;;49.65;4.18;;;;;;;;;;5053627;28;20061;-66
2023/12/08 03:44:14;;;;;;;52.05;5.20;;;;;;;;;;5053879;28;20055;-65
2023/12/08 03:46:43;;;;;;;57.53;4.68;;;;;;;;;;5053938;28;20045;-66
2023/12/08 03:49:09;;;;;;;38.80;3.58;;;;;;;;;;5052049;28;20075;-65
2023/12/08 03:51:34;;;;;;;46.38;4.20;;;;;;;;;;5053575;28;20083;-65
2023/12/08 03:53:59;;;;;;;53.78;3.53;;;;;;;;;;5053433;28;20037;-65
2023/12/08 03:56:25;;;;;;;40.70;3.67;;;;;;;;;;5053470;28;20678;-66
2023/12/08 03:58:50;;;;;;;50.80;3.97;;;;;;;;;;5053490;28;20120;-65
2023/12/08 04:01:17;;;;;;;60.08;3.83;;;;;;;;;;5053615;28;20064;-65
2023/12/08 04:03:42;;;;;;;57.35;4.90;;;;;;;;;;5052040;28;20060;-65
2023/12/08 04:06:07;;;;;;;40.05;4.05;;;;;;;;;;5053555;28;20056;-66
2023/12/08 04:08:33;;;;;;;34.25;3.33;;;;;;;;;;5053472;28;20072;-66
2023/12/08 04:10:58;;;;;;;46.85;3.75;;;;;;;;;;5050074;28;20033;-65
2023/12/08 04:13:24;;;;;;;43.35;3.90;;;;;;;;;;5053129;28;20047;-66
2023/12/08 04:15:49;;;;;;;45.15;3.28;;;;;;;;;;5053362;28;20037;-66
2023/12/08 04:18:15;;;;;;;52.63;3.70;;;;;;;;;;5053215;28;20070;-65
2023/12/08 04:20:40;;;;;;;40.83;4.10;;;;;;;;;;5053071;28;20028;-65
2023/12/08 04:23:05;;;;;;;42.13;4.15;;;;;;;;;;5052922;28;20045;-66
2023/12/08 04:25:31;;;;;;;40.50;3.50;;;;;;;;;;5051588;28;20044;-66
2023/12/08 04:27:56;;;;;;;35.80;3.28;;;;;;;;;;5052902;28;20033;-65
2023/12/08 04:30:21;;;;;;;39.80;3.22;;;;;;;;;;5052717;28;20498;-66
2023/12/08 04:32:47;;;;;;;46.90;3.95;;;;;;;;;;5052911;28;20031;-66
2023/12/08 04:35:14;;;;;;;24.83;2.75;;;;;;;;;;5051369;28;20036;-65
2023/12/08 04:37:39;;;;;;;28.75;3.53;;;;;;;;;;5052716;28;20044;-65
2023/12/08 04:40:05;;;;;;;46.15;3.67;;;;;;;;;;5052539;28;20033;-65
2023/12/08 04:42:30;;;;;;;51.28;4.10;;;;;;;;;;5052651;28;20078;-65
2023/12/08 04:44:56;;;;;;;41.28;3.97;;;;;;;;;;5052560;28;20051;-65
2023/12/08 04:47:22;;;;;;;46.05;3.78;;;;;;;;;;5052581;28;20025;-65
2023/12/08 04:49:47;;;;;;;44.53;3.30;;;;;;;;;;5051603;28;20032;-65
2023/12/08 04:52:13;;;;;;;39.15;4.07;;;;;;;;;;5052141;28;20063;-65
2023/12/08 04:54:38;;;;;;;34.20;3.38;;;;;;;;;;5052411;28;20025;-66
2023/12/08 04:57:04;;;;;;;40.97;3.45;;;;;;;;;;5052294;28;20115;-65
2023/12/08 04:59:29;;;;;;;51.20;4.38;;;;;;;;;;5052170;28;20561;-65
2023/12/08 05:01:54;;;;;;;39.05;3.15;;;;;;;;;;5051080;28;20061;-66
2023/12/08 05:04:20;;;;;;;41.03;4.07;;;;;;;;;;5052519;28;20063;-66
2023/12/08 05:06:48;;;;;;;42.70;3.33;;;;;;;;;;5052232;28;20125;-65
2023/12/08 05:09:13;;;;;;;31.63;3.78;;;;;;;;;;5051271;28;20037;-66
2023/12/08 05:11:39;;;;;;;47.10;4.93;;;;;;;;;;5051505;28;20032;-66
2023/12/08 05:14:04;;;;;;;30.85;3.15;;;;;;;;;;5045886;28;20093;-65
2023/12/08 05:16:30;;;;;;;39.22;4.25;;;;;;;;;;5051991;28;20033;-65
2023/12/08 05:18:55;;;;;;;32.08;3.13;;;;;;;;;;5050830;28;20484;-65
2023/12/08 05:21:21;;;;;;;53.47;3.72;;;;;;;;;;5049956;28;20090;-65
2023/12/08 05:23:46;;;;;;;27.20;2.83;;;;;;;;;;5052091;28;20025;-66
2023/12/08 05:26:11;;;;;;;42.83;4.10;;;;;;;;;;5051117;28;20053;-65
2023/12/08 05:28:36;;;;;;;35.60;4.38;;;;;;;;;;5051795;28;20083;-65
2023/12/08 05:31:04;;;;;;;59.08;4.82;;;;;;;;;;5051830;28;20455;-65
2023/12/08 05:33:29;;;;;;;39.83;4.43;;;;;;;;;;5050473;28;20033;-65
2023/12/08 05:35:55;;;;;;;39.80;3.53;;;;;;;;;;5049808;28;20465;-67
2023/12/08 05:38:21;;;;;;;40.03;3.80;;;;;;;;;;5051868;28;20484;-65
2023/12/08 05:40:46;;;;;;;32.00;5.03;;;;;;;;;;5051622;28;20039;-65
2023/12/08 05:43:11;;;;;;;37.05;3.90;;;;;;;;;;5051227;28;20041;-65
2023/12/08 05:45:37;;;;;;;51.35;3.65;;;;;;;;;;5051411;28;20028;-66
2023/12/08 05:48:02;;;;;;;60.30;3.85;;;;;;;;;;5051449;28;20051;-65
2023/12/08 05:50:27;;;;;;;54.90;5.82;;;;;;;;;;5051246;28;20041;-65
2023/12/08 05:52:53;;;;;;;52.28;5.13;;;;;;;;;;5051541;28;20035;-65
2023/12/08 05:55:18;;;;;;;44.05;6.03;;;;;;;;;;5051135;28;20533;-65
2023/12/08 05:57:43;;;;;;;50.35;5.13;;;;;;;;;;5050169;28;20119;-65
2023/12/08 06:00:10;;;;;;;44.53;4.57;;;;;;;;;;5050684;28;20049;-66
2023/12/08 06:02:36;;;;;;;53.25;5.07;;;;;;;;;;5051514;28;20032;-66
2023/12/08 06:05:01;;;;;;;46.38;4.80;;;;;;;;;;5050938;28;20104;-66
2023/12/08 06:07:26;;;;;;;52.20;4.55;;;;;;;;;;5050282;28;20059;-65
2023/12/08 06:09:52;;;;;;;57.88;3.92;;;;;;;;;;5050947;28;20492;-65
2023/12/08 06:12:17;;;;;;;45.45;4.90;;;;;;;;;;5050897;28;20493;-65
2023/12/08 06:14:42;;;;;;;31.08;3.05;;;;;;;;;;5050968;28;20473;-65
2023/12/08 06:17:08;;;;;;;68.88;5.90;;;;;;;;;;5050738;28;20107;-65
2023/12/08 06:19:33;;;;;;;36.08;3.03;;;;;;;;;;5050897;28;20119;-66
2023/12/08 06:21:58;;;;;;;46.13;4.60;;;;;;;;;;5051020;28;20055;-65
2023/12/08 06:24:24;;;;;;;63.17;4.32;;;;;;;;;;5049449;28;20070;-65
2023/12/08 06:26:50;;;;;;;29.35;2.70;;;;;;;;;;5050523;28;20136;-66
2023/12/08 06:29:17;;;;;;;41.15;3.53;;;;;;;;;;5050731;28;20548;-67
2023/12/08 06:31:43;;;;;;;39.67;3.22;;;;;;;;;;5043388;28;20037;-65
2023/12/08 06:34:09;;;;;;;40.88;3.33;;;;;;;;;;5050331;28;20086;-65
2023/12/08 06:36:34;;;;;;;45.00;3.83;;;;;;;;;;5050698;28;20032;-65
2023/12/08 06:39:00;;;;;;;46.05;3.60;;;;;;;;;;5049881;28;20036;-66
2023/12/08 06:41:25;;;;;;;41.30;3.88;;;;;;;;;;5041349;28;20056;-65
2023/12/08 06:43:51;;;;;;;38.28;3.38;;;;;;;;;;5049857;28;20059;-65
2023/12/08 06:46:16;;;;;;;35.78;3.70;;;;;;;;;;5043349;28;20153;-66
2023/12/08 06:48:41;;;;;;;46.42;3.20;;;;;;;;;;5044333;28;20068;-65
2023/12/08 06:51:06;;;;;;;30.60;2.80;;;;;;;;;;5049936;28;20037;-65
2023/12/08 06:53:32;;;;;;;35.60;3.38;;;;;;;;;;5050481;28;20044;-66
2023/12/08 06:55:58;;;;;;;34.63;3.20;;;;;;;;;;5049854;28;20048;-65
2023/12/08 06:58:23;;;;;;;36.72;3.63;;;;;;;;;;5050551;28;20033;-65
2023/12/08 07:00:48;;;;;;;38.10;3.22;;;;;;;;;;5047989;28;20040;-65
2023/12/08 07:03:14;;;;;;;34.30;3.40;;;;;;;;;;5049803;28;20044;-65
2023/12/08 07:05:39;;;;;;;49.60;3.92;;;;;;;;;;5050301;28;20457;-65
2023/12/08 07:08:04;;;;;;;49.92;3.42;;;;;;;;;;5050209;28;20464;-66
2023/12/08 07:10:30;;;;;;;38.38;3.33;;;;;;;;;;5047703;28;20106;-66
2023/12/08 07:12:55;;;;;;;37.42;3.28;;;;;;;;;;5046852;28;20071;-65
2023/12/08 07:15:21;;;;;;;40.58;3.28;;;;;;;;;;5050290;28;20079;-66
2023/12/08 07:17:46;;;;;;;32.60;2.85;;;;;;;;;;5045838;28;20080;-66
2023/12/08 07:20:11;;;;;;;55.17;3.80;;;;;;;;;;5050117;28;20040;-65
2023/12/08 07:22:37;;;;;;;44.70;4.45;;;;;;;;;;5049045;28;20028;-68
2023/12/08 07:25:04;;;;;;;42.03;4.90;;;;;;;;;;5044802;28;20051;-67
2023/12/08 07:27:29;;;;;;;40.83;7.00;;;;;;;;;;5048988;28;20033;-67
2023/12/08 07:29:55;;;;;;;59.10;6.32;;;;;;;;;;5043998;28;20029;-68
2023/12/08 07:32:20;;;;;;;48.55;6.25;;;;;;;;;;5049494;28;20040;-67
2023/12/08 07:34:45;;;;;;;48.38;6.80;;;;;;;;;;5050096;28;20040;-67
2023/12/08 07:37:11;;;;;;;40.45;6.65;;;;;;;;;;5049719;28;20025;-68
2023/12/08 07:39:36;;;;;;;37.53;5.30;;;;;;;;;;5049657;28;20045;-67
2023/12/08 07:42:02;;;;;;;40.90;5.60;;;;;;;;;;5049888;28;20044;-67
2023/12/08 07:44:28;;;;;;;45.78;5.35;;;;;;;;;;5050003;28;20032;-68
2023/12/08 07:46:53;;;;;;;65.57;5.75;;;;;;;;;;5049854;28;20037;-67
2023/12/08 07:49:19;;;;;;;38.05;4.97;;;;;;;;;;5049716;28;20130;-66
2023/12/08 07:51:45;;;;;;;50.67;4.63;;;;;;;;;;5049583;28;20029;-66
2023/12/08 07:54:10;;;;;;;33.38;4.50;;;;;;;;;;5042036;28;20034;-66
2023/12/08 07:56:36;;;;;;;46.35;4.65;;;;;;;;;;5045806;28;20112;-67
2023/12/08 07:59:01;;;;;;;44.15;4.22;;;;;;;;;;5048384;28;20032;-66
2023/12/08 08:01:26;;;;;;;53.28;4.63;;;;;;;;;;5053297;28;20140;-67
2023/12/08 08:03:52;;;;;;;37.78;4.32;;;;;;;;;;5053412;28;20025;-66
2023/12/08 08:06:17;;;;;;;29.05;3.53;;;;;;;;;;5051910;28;20041;-69
2023/12/08 08:08:42;;;;;;;32.97;3.78;;;;;;;;;;5045477;28;20040;-66
2023/12/08 08:11:08;;;;;;;26.10;3.42;;;;;;;;;;5051922;28;20089;-67
2023/12/08 08:13:33;;;;;;;40.55;4.35;;;;;;;;;;5051835;28;20036;-66
2023/12/08 08:15:58;;;;;;;60.80;5.85;;;;;;;;;;5052507;28;20048;-67
2023/12/08 08:18:24;;;;;;;35.70;5.07;;;;;;;;;;5050768;28;20040;-67
2023/12/08 08:20:49;;;;;;;40.33;7.10;;;;;;;;;;5053264;28;20052;-67
2023/12/08 08:23:14;;;;;;;60.85;6.50;;;;;;;;;;5053039;28;20071;-66
2023/12/08 08:25:40;;;;;;;34.08;4.18;;;;;;;;;;5053179;28;20048;-68
2023/12/08 08:28:06;;;;;;;48.58;6.03;;;;;;;;;;5051189;28;20036;-67
2023/12/08 08:30:33;;;;;;;37.28;6.43;;;;;;;;;;5052525;28;20446;-67
2023/12/08 08:32:59;;;;;;;39.28;4.82;;;;;;;;;;5053641;28;20029;-68
2023/12/08 08:35:24;;;;;;;44.88;4.95;;;;;;;;;;5059485;28;20154;-67
2023/12/08 08:37:49;;;;;;;41.67;6.38;;;;;;;;;;5062285;28;20033;-66
2023/12/08 08:40:15;;;;;;;51.92;8.30;;;;;;;;;;5051132;28;20032;-66
2023/12/08 08:42:40;;;;;;;48.60;6.38;;;;;;;;;;5052587;28;20041;-68
2023/12/08 08:45:06;;;;;;;39.13;4.30;;;;;;;;;;5052503;28;20046;-67
2023/12/08 08:47:32;;;;;;;48.17;5.05;;;;;;;;;;5053890;28;20029;-67
2023/12/08 08:49:57;;;;;;;44.92;4.90;;;;;;;;;;5054106;28;20032;-67
2023/12/08 08:52:23;;;;;;;58.47;4.90;;;;;;;;;;5052381;28;20484;-67
2023/12/08 08:54:48;;;;;;;51.35;5.35;;;;;;;;;;5052289;28;20120;-66
2023/12/08 08:57:14;;;;;;;70.95;5.10;;;;;;;;;;5050820;28;20404;-66
2023/12/08 08:59:39;;;;;;;38.28;4.22;;;;;;;;;;5052305;28;20041;-67
2023/12/08 09:02:04;;;;;;;53.67;3.97;;;;;;;;;;5051623;28;20037;-68
2023/12/08 09:04:30;;;;;;;39.92;4.13;;;;;;;;;;5051582;28;20083;-67
2023/12/08 09:06:58;;;;;;;38.95;3.60;;;;;;;;;;5051659;28;20786;-67
2023/12/08 09:09:23;;;;;;;42.97;4.28;;;;;;;;;;5035598;28;20060;-68
2023/12/08 09:11:49;;;;;;;31.30;3.72;;;;;;;;;;5051523;28;20504;-67
2023/12/08 09:14:15;;;;;;;41.63;5.28;;;;;;;;;;5051851;28;20068;-67
2023/12/08 09:16:40;;;;;;;34.92;3.72;;;;;;;;;;5048378;28;20055;-67
2023/12/08 09:19:05;;;;;;;66.82;5.65;;;;;;;;;;5045343;28;20048;-67
2023/12/08 09:21:31;;;;;;;30.63;3.97;;;;;;;;;;5047210;28;20033;-67
2023/12/08 09:23:57;;;;;;;36.22;3.70;;;;;;;;;;5048020;28;20025;-67
2023/12/08 09:26:22;;;;;;;47.85;4.68;;;;;;;;;;5048614;28;20131;-69
2023/12/08 09:28:47;;;;;;;38.40;4.00;;;;;;;;;;5053351;28;20519;-68
2023/12/08 09:31:13;;;;;;;39.08;6.50;;;;;;;;;;5047882;28;20060;-66
2023/12/08 09:33:41;;;;;;;38.90;4.93;;;;;;;;;;5044062;28;20037;-69
2023/12/08 09:36:07;;;;;;;34.50;4.15;;;;;;;;;;5045531;28;20124;-67
2023/12/08 09:38:32;;;;;;;18.80;2.25;;;;;;;;;;5048035;28;20536;-67
2023/12/08 09:40:58;;;;;;;34.25;4.38;;;;;;;;;;5048098;28;20075;-66
2023/12/08 09:43:31;;;;;;;40.85;5.40;;;;;;;;;;5047475;28;20051;-67
2023/12/08 09:45:57;;;;;;;37.95;3.70;;;;;;;;;;5046717;28;20029;-67
2023/12/08 09:48:23;;;;;;;58.00;6.68;;;;;;;;;;5047160;28;20159;-67
2023/12/08 09:50:50;;;;;;;35.38;5.03;;;;;;;;;;5048374;28;20045;-67
2023/12/08 09:53:16;;;;;;;37.53;5.38;;;;;;;;;;5046539;28;20044;-66
2023/12/08 09:55:43;;;;;;;33.88;6.32;;;;;;;;;;5047581;28;20392;-66
2023/12/08 09:58:08;;;;;;;36.67;4.60;;;;;;;;;;5047245;28;20045;-67
2023/12/08 10:00:35;;;;;;;55.15;6.68;;;;;;;;;;5038391;28;20029;-66
2023/12/08 10:03:00;;;;;;;48.92;6.93;;;;;;;;;;5028555;28;20072;-67
2023/12/08 10:05:27;;;;;;;26.17;3.88;;;;;;;;;;5044008;28;20678;-67
2023/12/08 10:07:54;;;;;;;27.90;3.28;;;;;;;;;;5045512;28;20064;-66
2023/12/08 10:10:21;;;;;;;25.33;3.22;;;;;;;;;;5045575;28;20378;-66
2023/12/08 10:12:47;;;;;;;31.10;4.43;;;;;;;;;;5044355;28;20477;-67
2023/12/08 10:15:16;;;;;;;34.10;3.67;;;;;;;;;;5043451;28;20037;-67
2023/12/08 10:17:48;;;;;;;37.55;3.53;;;;;;;;;;5046779;28;20507;-67
2023/12/08 10:20:15;;;;;;;30.27;3.57;;;;;;;;;;5035843;28;20106;-66
2023/12/08 10:22:48;;;;;;;38.55;3.97;;;;;;;;;;5045659;28;20051;-67
2023/12/08 10:25:16;;;;;;;28.08;2.75;;;;;;;;;;5026675;28;20128;-67
2023/12/08 10:27:42;;;;;;;38.70;2.70;;;;;;;;;;5041950;28;20044;-66
2023/12/08 10:30:08;;;;;;;33.67;3.65;;;;;;;;;;5048635;28;20036;-67
2023/12/08 10:32:33;;;;;;;37.63;4.18;;;;;;;;;;5045635;28;20080;-68
2023/12/08 10:34:59;;;;;;;28.52;3.17;;;;;;;;;;5053408;28;20134;-66
2023/12/08 10:37:24;;;;;;;31.70;3.40;;;;;;;;;;5047262;28;20025;-66
2023/12/08 10:39:50;;;;;;;16.08;2.78;;;;;;;;;;5045266;28;20045;-67
2023/12/08 10:42:16;;;;;;;32.88;3.67;;;;;;;;;;5045633;28;20064;-67
2023/12/08 10:44:45;;;;;;;49.38;4.70;;;;;;;;;;5046874;28;20110;-67
2023/12/08 10:47:11;;;;;;;34.17;3.45;;;;;;;;;;5044841;28;20037;-67
2023/12/08 10:49:38;;;;;;;25.38;3.08;;;;;;;;;;5045243;28;20048;-67
2023/12/08 10:52:04;;;;;;;43.95;4.10;;;;;;;;;;5045905;28;20032;-68
2023/12/08 10:54:30;;;;;;;41.75;3.15;;;;;;;;;;5045489;28;20037;-67
2023/12/08 10:56:56;;;;;;;45.80;3.72;;;;;;;;;;5046778;28;20045;-67
2023/12/08 10:59:24;;;;;;;27.88;3.25;;;;;;;;;;5045378;28;20032;-67
2023/12/08 11:01:52;;;;;;;33.08;3.30;;;;;;;;;;5045288;28;20048;-66
2023/12/08 11:04:20;;;;;;;38.65;4.38;;;;;;;;;;5045843;28;20120;-67
2023/12/08 11:06:58;;;;;;;37.15;3.17;;;;;;;;;;5046649;28;20029;-67
2023/12/08 11:09:24;;;;;;;28.92;2.63;;;;;;;;;;5075397;28;20041;-67
2023/12/08 11:11:54;;;;;;;36.00;4.10;;;;;;;;;;5045419;28;20033;-67
2023/12/08 11:14:27;;;;;;;29.77;4.88;;;;;;;;;;5044238;28;20579;-68
2023/12/08 11:16:58;;;;;;;;;;;;;;;;;;5045508;28;20443;-67
2023/12/08 11:19:24;;;;;;;39.90;4.00;;;;;;;;;;5070797;28;19982;-68
2023/12/08 11:21:50;;;;;;;23.65;2.95;;;;;;;;;;5046941;28;20040;-67
2023/12/08 11:24:15;;;;;;;31.98;3.90;;;;;;;;;;5044455;28;20056;-68
2023/12/08 11:26:46;;;;;;;35.45;3.80;;;;;;;;;;5045245;28;20052;-67
2023/12/08 11:29:14;;;;;;;31.15;4.97;;;;;;;;;;5045258;28;20104;-67
2023/12/08 11:31:51;;;;;;;26.42;3.40;;;;;;;;;;5041541;28;20068;-66
2023/12/08 11:34:21;;;;;;;32.42;2.88;;;;;;;;;;5045575;28;20107;-67
2023/12/08 11:36:46;;;;;;;32.65;3.22;;;;;;;;;;5049184;28;20131;-68
2023/12/08 11:39:30;;;;;;;32.42;3.70;;;;;;;;;;5058234;28;20519;-67
2023/12/08 11:41:56;;;;;;;37.13;3.58;;;;;;;;;;5048222;28;20029;-67
2023/12/08 11:44:21;;;;;;;30.95;3.55;;;;;;;;;;5050252;28;20066;-67
2023/12/08 11:46:51;;;;;;;23.75;2.88;;;;;;;;;;5049938;28;20028;-68
2023/12/08 11:49:17;;;;;;;20.95;2.72;;;;;;;;;;5048439;28;20423;-67
2023/12/08 11:52:06;;;;;;;37.13;3.65;;;;;;;;;;5048867;28;20044;-69
2023/12/08 11:55:00;;;;;;;21.08;3.40;;;;;;;;;;5037400;28;20122;-68
2023/12/08 11:57:27;;;;;;;35.80;4.28;;;;;;;;;;5038159;28;20048;-67
2023/12/08 11:59:53;;;;;;;20.52;2.70;;;;;;;;;;5031223;28;20393;-66
2023/12/08 12:02:19;;;;;;;33.60;3.55;;;;;;;;;;5048007;28;20041;-67
2023/12/08 12:04:44;;;;;;;32.60;3.47;;;;;;;;;;5046225;28;20032;-66
2023/12/08 12:07:10;;;;;;;33.35;3.60;;;;;;;;;;5048656;28;20040;-66
2023/12/08 12:09:35;;;;;;;29.88;3.97;;;;;;;;;;5046544;28;20515;-67
2023/12/08 12:12:09;;;;;;;29.17;3.15;;;;;;;;;;5048729;28;20131;-66
2023/12/08 12:14:34;;;;;;;;;;;;;;;;;;5046982;28;20047;-67
2023/12/08 12:17:00;;;;;;;38.42;4.60;;;;;;;;;;5047740;28;19942;-67
2023/12/08 12:19:26;;;;;;;36.85;4.35;;;;;;;;;;5048503;28;20488;-66
2023/12/08 12:21:51;;;;;;;29.25;4.18;;;;;;;;;;5046479;28;20045;-66
2023/12/08 12:24:16;;;;;;;33.83;3.55;;;;;;;;;;5048988;28;20463;-66
2023/12/08 12:26:42;;;;;;;35.65;3.38;;;;;;;;;;5046689;28;20488;-68
2023/12/08 12:29:07;;;;;;;47.05;5.43;;;;;;;;;;5046136;28;20420;-66
2023/12/08 12:31:33;;;;;;;26.27;3.38;;;;;;;;;;5048018;28;20586;-66
2023/12/08 12:33:59;;;;;;;32.10;3.47;;;;;;;;;;5050461;28;20047;-67
2023/12/08 12:36:24;;;;;;;27.17;3.55;;;;;;;;;;5048631;28;20388;-66
2023/12/08 12:38:52;;;;;;;31.70;3.53;;;;;;;;;;5049610;28;20680;-66
2023/12/08 12:41:20;;;;;;;37.83;3.83;;;;;;;;;;5049274;28;20397;-66
2023/12/08 12:43:46;;;;;;;29.08;3.10;;;;;;;;;;5049700;28;20111;-67
2023/12/08 12:46:12;;;;;;;33.63;4.20;;;;;;;;;;5046837;28;20211;-66
2023/12/08 12:48:38;;;;;;;32.85;3.67;;;;;;;;;;5048391;28;20098;-66
2023/12/08 12:51:04;;;;;;;33.28;3.53;;;;;;;;;;5047799;28;20033;-67
2023/12/08 12:53:29;;;;;;;37.00;4.40;;;;;;;;;;5040552;28;20397;-66
2023/12/08 12:56:05;;;;;;;38.63;3.58;;;;;;;;;;5041908;28;20122;-67
2023/12/08 12:58:30;;;;;;;18.10;3.05;;;;;;;;;;5046917;28;20068;-66
2023/12/08 13:00:56;;;;;;;25.55;3.28;;;;;;;;;;5045510;28;20475;-67
2023/12/08 13:03:22;;;;;;;30.52;2.92;;;;;;;;;;5051410;28;20735;-67
2023/12/08 13:05:58;;;;;;;28.27;3.20;;;;;;;;;;5050743;28;20036;-66
2023/12/08 13:08:24;;;;;;;28.25;2.80;;;;;;;;;;5046151;28;20065;-67
2023/12/08 13:10:50;;;;;;;23.77;2.17;;;;;;;;;;5044953;28;20467;-67
2023/12/08 13:13:16;;;;;;;26.13;2.90;;;;;;;;;;5046090;28;20132;-66
2023/12/08 13:15:42;;;;;;;22.45;2.70;;;;;;;;;;5027179;28;20033;-68
2023/12/08 13:18:07;;;;;;;18.48;2.15;;;;;;;;;;5049243;28;20522;-66
2023/12/08 13:20:34;;;;;;;20.75;2.25;;;;;;;;;;5049994;28;20028;-67
2023/12/08 13:23:00;;;;;;;18.98;2.10;;;;;;;;;;5045896;28;20091;-67
2023/12/08 13:25:25;;;;;;;22.33;2.78;;;;;;;;;;5046567;28;20040;-66
2023/12/08 13:27:50;;;;;;;21.45;3.25;;;;;;;;;;5042507;28;20047;-67
2023/12/08 13:30:16;;;;;;;26.65;3.33;;;;;;;;;;5049591;28;20052;-66
2023/12/08 13:32:41;;;;;;;31.50;3.85;;;;;;;;;;5051101;28;20365;-66
2023/12/08 13:35:07;;;;;;;24.63;3.72;;;;;;;;;;5045550;28;20037;-67
2023/12/08 13:37:33;;;;;;;31.13;4.70;;;;;;;;;;5046986;28;20423;-66
2023/12/08 13:39:59;;;;;;;26.63;6.03;;;;;;;;;;5043409;28;20038;-66
2023/12/08 13:42:24;;;;;;;24.17;3.58;;;;;;;;;;5046326;28;20385;-67
2023/12/08 13:44:49;;;;;;;30.73;3.80;;;;;;;;;;5047463;28;20040;-67
2023/12/08 13:47:15;;;;;;;30.48;5.05;;;;;;;;;;5049105;28;20574;-66
2023/12/08 13:49:47;;;;;;;25.23;5.13;;;;;;;;;;5044110;28;20032;-66
2023/12/08 13:52:12;;;;;;;20.13;3.03;;;;;;;;;;5045653;28;20033;-67
2023/12/08 13:54:37;;;;;;;21.83;2.83;;;;;;;;;;5045827;28;20043;-68
2023/12/08 13:57:03;;;;;;;20.95;3.53;;;;;;;;;;5046645;28;20396;-67
2023/12/08 13:59:28;;;;;;;28.48;3.90;;;;;;;;;;5046058;28;20033;-66
2023/12/08 14:01:54;;;;;;;25.42;3.83;;;;;;;;;;5045683;28;20118;-67
2023/12/08 14:04:19;;;;;;;27.35;4.22;;;;;;;;;;5046851;28;20075;-66
2023/12/08 14:06:44;;;;;;;20.27;3.10;;;;;;;;;;5055700;28;20036;-66
2023/12/08 14:09:10;;;;;;;33.15;3.22;;;;;;;;;;5047308;28;20067;-67
2023/12/08 14:11:35;;;;;;;28.42;3.85;;;;;;;;;;5052681;28;20028;-66
2023/12/08 14:14:01;;;;;;;28.75;3.25;;;;;;;;;;5046479;28;20111;-66
2023/12/08 14:16:26;;;;;;;28.73;4.07;;;;;;;;;;5048196;28;20060;-66
2023/12/08 14:18:52;;;;;;;21.20;3.78;;;;;;;;;;5046660;28;20029;-67
2023/12/08 14:21:18;;;;;;;34.67;4.50;;;;;;;;;;5050585;28;20041;-67
2023/12/08 14:23:43;;;;;;;40.25;3.67;;;;;;;;;;5047295;28;20037;-66